Terminal Aerodrome Forecast
Issued by NWS

Home | Current Version | Previous Version | Text Only | Print | Product List | Glossary On
Versions: 1 2 3 4 5 6 7 8 9 10 11 12 13 14
487
FTUS46 KPDT 032320
TAFDLS
TAF
KDLS 032320Z 0400/0424 31014KT P6SM VCSH SCT100 BKN200
     FM040300 31011KT P6SM -SHRA BKN080
     FM040800 30008KT P6SM SCT080 BKN120
     FM042100 32013KT P6SM VCSH SCT060 BKN100=

USA.gov is the U.S. government's official web portal to all federal, state and local government web resources and services.